sensor_id;sensor_type;location;lat;lon;timestamp;pressure;altitude;pressure_sealevel;temperature;humidity
72110;BME280;59983;52.010;5.420;2023-05-23T00:01:58;101913.78;;;15.46;92.28
72110;BME280;59983;52.010;5.420;2023-05-23T00:04:25;101915.28;;;15.43;92.25
72110;BME280;59983;52.010;5.420;2023-05-23T00:06:52;101918.63;;;15.37;92.85
72110;BME280;59983;52.010;5.420;2023-05-23T00:09:19;101915.38;;;15.31;93.39
72110;BME280;59983;52.010;5.420;2023-05-23T00:11:46;101920.22;;;15.22;94.13
72110;BME280;59983;52.010;5.420;2023-05-23T00:14:15;101914.63;;;15.18;94.80
72110;BME280;59983;52.010;5.420;2023-05-23T00:16:44;101923.47;;;15.12;95.11
72110;BME280;59983;52.010;5.420;2023-05-23T00:19:11;101931.47;;;15.05;95.86
72110;BME280;59983;52.010;5.420;2023-05-23T00:21:41;101930.31;;;15.06;95.93
72110;BME280;59983;52.010;5.420;2023-05-23T00:24:13;101941.69;;;15.08;95.77
72110;BME280;59983;52.010;5.420;2023-05-23T00:26:44;101930.66;;;15.04;96.24
72110;BME280;59983;52.010;5.420;2023-05-23T00:29:11;101932.13;;;15.01;96.29
72110;BME280;59983;52.010;5.420;2023-05-23T00:31:42;101938.22;;;14.95;96.61
72110;BME280;59983;52.010;5.420;2023-05-23T00:34:12;101931.50;;;14.92;97.01
72110;BME280;59983;52.010;5.420;2023-05-23T00:36:39;101929.22;;;14.94;96.74
72110;BME280;59983;52.010;5.420;2023-05-23T00:39:07;101938.66;;;14.97;96.70
72110;BME280;59983;52.010;5.420;2023-05-23T00:41:34;101934.69;;;14.94;96.38
72110;BME280;59983;52.010;5.420;2023-05-23T00:44:01;101942.53;;;14.96;96.27
72110;BME280;59983;52.010;5.420;2023-05-23T00:46:30;101942.41;;;14.92;96.16
72110;BME280;59983;52.010;5.420;2023-05-23T00:48:57;101948.03;;;14.84;96.37
72110;BME280;59983;52.010;5.420;2023-05-23T00:51:24;101947.59;;;14.82;96.51
72110;BME280;59983;52.010;5.420;2023-05-23T00:53:51;101955.34;;;14.80;96.69
72110;BME280;59983;52.010;5.420;2023-05-23T00:56:18;101955.91;;;14.73;96.66
72110;BME280;59983;52.010;5.420;2023-05-23T00:58:44;101942.84;;;14.66;96.80
72110;BME280;59983;52.010;5.420;2023-05-23T01:01:11;101967.41;;;14.66;96.88
72110;BME280;59983;52.010;5.420;2023-05-23T01:03:37;101956.19;;;14.56;96.97
72110;BME280;59983;52.010;5.420;2023-05-23T01:06:04;101956.88;;;14.53;97.08
72110;BME280;59983;52.010;5.420;2023-05-23T01:08:31;101962.25;;;14.49;97.43
72110;BME280;59983;52.010;5.420;2023-05-23T01:11:00;101958.69;;;14.49;97.56
72110;BME280;59983;52.010;5.420;2023-05-23T01:13:46;101958.47;;;14.41;97.86
72110;BME280;59983;52.010;5.420;2023-05-23T01:16:26;101954.16;;;14.40;98.28
72110;BME280;59983;52.010;5.420;2023-05-23T01:19:00;101950.41;;;14.33;98.92
72110;BME280;59983;52.010;5.420;2023-05-23T01:21:30;101958.22;;;14.22;99.71
72110;BME280;59983;52.010;5.420;2023-05-23T01:29:50;101948.59;;;14.25;100.00
72110;BME280;59983;52.010;5.420;2023-05-23T01:32:20;101953.13;;;14.21;100.00
72110;BME280;59983;52.010;5.420;2023-05-23T01:34:52;101953.00;;;14.29;100.00
72110;BME280;59983;52.010;5.420;2023-05-23T01:37:18;101962.22;;;14.37;99.63
72110;BME280;59983;52.010;5.420;2023-05-23T01:39:45;101958.69;;;14.36;99.43
72110;BME280;59983;52.010;5.420;2023-05-23T01:42:12;101955.50;;;14.34;99.64
72110;BME280;59983;52.010;5.420;2023-05-23T01:44:40;101956.09;;;14.28;99.99
72110;BME280;59983;52.010;5.420;2023-05-23T01:47:08;101946.41;;;14.30;99.99
72110;BME280;59983;52.010;5.420;2023-05-23T01:49:37;101964.06;;;14.33;100.00
72110;BME280;59983;52.010;5.420;2023-05-23T01:52:04;101957.66;;;14.29;100.00
72110;BME280;59983;52.010;5.420;2023-05-23T01:54:36;101962.34;;;14.28;100.00
72110;BME280;59983;52.010;5.420;2023-05-23T01:57:04;101958.38;;;14.26;100.00
72110;BME280;59983;52.010;5.420;2023-05-23T01:59:31;101959.25;;;14.30;100.00
72110;BME280;59983;52.010;5.420;2023-05-23T02:01:58;101960.84;;;14.31;100.00
72110;BME280;59983;52.010;5.420;2023-05-23T02:04:27;101967.44;;;14.30;100.00
72110;BME280;59983;52.010;5.420;2023-05-23T02:06:53;101966.09;;;14.24;100.00
72110;BME280;59983;52.010;5.420;2023-05-23T02:09:20;101968.50;;;14.25;100.00
72110;BME280;59983;52.010;5.420;2023-05-23T02:11:46;101967.56;;;14.21;100.00
72110;BME280;59983;52.010;5.420;2023-05-23T02:14:13;101969.16;;;14.22;100.00
72110;BME280;59983;52.010;5.420;2023-05-23T02:16:39;101976.69;;;14.25;100.00
72110;BME280;59983;52.010;5.420;2023-05-23T02:19:06;101977.13;;;14.27;100.00
72110;BME280;59983;52.010;5.420;2023-05-23T02:21:32;101972.69;;;14.35;100.00
72110;BME280;59983;52.010;5.420;2023-05-23T02:24:00;101980.63;;;14.40;100.00
72110;BME280;59983;52.010;5.420;2023-05-23T02:26:27;101977.09;;;14.39;100.00
72110;BME280;59983;52.010;5.420;2023-05-23T02:28:54;101979.03;;;14.39;100.00
72110;BME280;59983;52.010;5.420;2023-05-23T02:31:20;101978.84;;;14.32;99.93
72110;BME280;59983;52.010;5.420;2023-05-23T02:33:47;101981.88;;;14.30;100.00
72110;BME280;59983;52.010;5.420;2023-05-23T02:36:14;101987.56;;;14.37;99.94
72110;BME280;59983;52.010;5.420;2023-05-23T02:38:40;101982.91;;;14.38;99.54
72110;BME280;59983;52.010;5.420;2023-05-23T02:41:07;101997.16;;;14.31;99.74
72110;BME280;59983;52.010;5.420;2023-05-23T02:43:33;101987.94;;;14.24;100.00
72110;BME280;59983;52.010;5.420;2023-05-23T02:46:00;101991.91;;;14.26;99.75
72110;BME280;59983;52.010;5.420;2023-05-23T02:48:26;102002.81;;;14.26;99.87
72110;BME280;59983;52.010;5.420;2023-05-23T02:50:53;101997.16;;;14.31;99.84
72110;BME280;59983;52.010;5.420;2023-05-23T02:53:20;102002.00;;;14.38;98.96
72110;BME280;59983;52.010;5.420;2023-05-23T02:55:47;101998.38;;;14.34;99.05
72110;BME280;59983;52.010;5.420;2023-05-23T02:58:14;101997.94;;;14.32;99.01
72110;BME280;59983;52.010;5.420;2023-05-23T03:00:41;101999.31;;;14.26;99.39
72110;BME280;59983;52.010;5.420;2023-05-23T03:03:09;102007.50;;;14.26;99.28
72110;BME280;59983;52.010;5.420;2023-05-23T03:05:37;102002.13;;;14.29;99.22
72110;BME280;59983;52.010;5.420;2023-05-23T03:08:04;101993.81;;;14.38;98.85
72110;BME280;59983;52.010;5.420;2023-05-23T03:10:32;101995.09;;;14.40;98.41
72110;BME280;59983;52.010;5.420;2023-05-23T03:12:58;101991.22;;;14.41;98.23
72110;BME280;59983;52.010;5.420;2023-05-23T03:15:25;101997.00;;;14.40;98.50
72110;BME280;59983;52.010;5.420;2023-05-23T03:17:51;101989.75;;;14.44;98.09
72110;BME280;59983;52.010;5.420;2023-05-23T03:20:18;101992.38;;;14.40;97.98
72110;BME280;59983;52.010;5.420;2023-05-23T03:22:44;101979.50;;;14.29;98.35
72110;BME280;59983;52.010;5.420;2023-05-23T03:25:11;101991.56;;;14.28;98.39
72110;BME280;59983;52.010;5.420;2023-05-23T03:27:38;101990.56;;;14.32;98.33
72110;BME280;59983;52.010;5.420;2023-05-23T03:30:05;101997.25;;;14.35;97.94
72110;BME280;59983;52.010;5.420;2023-05-23T03:32:31;101998.16;;;14.27;98.16
72110;BME280;59983;52.010;5.420;2023-05-23T03:34:58;101998.06;;;14.23;98.27
72110;BME280;59983;52.010;5.420;2023-05-23T03:37:24;101992.34;;;14.28;98.33
72110;BME280;59983;52.010;5.420;2023-05-23T03:39:51;102001.69;;;14.27;98.01
72110;BME280;59983;52.010;5.420;2023-05-23T03:42:17;102004.06;;;14.29;98.26
72110;BME280;59983;52.010;5.420;2023-05-23T03:44:44;102010.91;;;14.35;98.15
72110;BME280;59983;52.010;5.420;2023-05-23T03:47:10;102006.13;;;14.32;97.41
72110;BME280;59983;52.010;5.420;2023-05-23T03:49:37;102010.09;;;14.22;97.73
72110;BME280;59983;52.010;5.420;2023-05-23T03:52:04;102013.06;;;14.17;97.59
72110;BME280;59983;52.010;5.420;2023-05-23T03:54:30;102016.13;;;14.15;97.73
72110;BME280;59983;52.010;5.420;2023-05-23T03:56:57;102008.94;;;14.11;97.37
72110;BME280;59983;52.010;5.420;2023-05-23T03:59:23;102024.97;;;14.00;97.93
72110;BME280;59983;52.010;5.420;2023-05-23T04:01:50;102030.19;;;13.93;98.04
72110;BME280;59983;52.010;5.420;2023-05-23T04:04:16;102031.31;;;13.92;98.54
72110;BME280;59983;52.010;5.420;2023-05-23T04:06:43;102036.44;;;13.94;98.58
72110;BME280;59983;52.010;5.420;2023-05-23T04:09:10;102037.81;;;13.87;98.56
72110;BME280;59983;52.010;5.420;2023-05-23T04:11:36;102039.06;;;13.90;98.52
72110;BME280;59983;52.010;5.420;2023-05-23T04:14:03;102035.53;;;13.89;98.58
72110;BME280;59983;52.010;5.420;2023-05-23T04:16:29;102040.19;;;13.89;98.25
72110;BME280;59983;52.010;5.420;2023-05-23T04:18:58;102044.97;;;13.92;98.30
72110;BME280;59983;52.010;5.420;2023-05-23T04:21:25;102036.44;;;13.94;98.21
72110;BME280;59983;52.010;5.420;2023-05-23T04:23:51;102046.09;;;13.91;97.80
72110;BME280;59983;52.010;5.420;2023-05-23T04:26:18;102054.38;;;13.82;98.10
72110;BME280;59983;52.010;5.420;2023-05-23T04:28:45;102053.13;;;13.80;98.40
72110;BME280;59983;52.010;5.420;2023-05-23T04:31:14;102052.09;;;13.84;98.10
72110;BME280;59983;52.010;5.420;2023-05-23T04:33:40;102060.50;;;13.79;98.19
72110;BME280;59983;52.010;5.420;2023-05-23T04:36:07;102068.28;;;13.69;98.54
72110;BME280;59983;52.010;5.420;2023-05-23T04:38:34;102066.94;;;13.63;99.04
72110;BME280;59983;52.010;5.420;2023-05-23T04:41:05;102065.78;;;13.64;98.95
72110;BME280;59983;52.010;5.420;2023-05-23T04:43:32;102071.59;;;13.62;99.05
72110;BME280;59983;52.010;5.420;2023-05-23T04:45:59;102068.72;;;13.58;98.65
72110;BME280;59983;52.010;5.420;2023-05-23T04:48:25;102077.56;;;13.55;98.49
72110;BME280;59983;52.010;5.420;2023-05-23T04:50:52;102078.03;;;13.57;98.32
72110;BME280;59983;52.010;5.420;2023-05-23T04:53:21;102074.97;;;13.59;98.21
72110;BME280;59983;52.010;5.420;2023-05-23T04:55:48;102086.34;;;13.61;97.71
72110;BME280;59983;52.010;5.420;2023-05-23T04:58:15;102087.94;;;13.62;97.25
72110;BME280;59983;52.010;5.420;2023-05-23T05:00:41;102088.81;;;13.54;96.95
72110;BME280;59983;52.010;5.420;2023-05-23T05:03:08;102096.28;;;13.45;97.18
72110;BME280;59983;52.010;5.420;2023-05-23T05:05:35;102098.66;;;13.46;97.53
72110;BME280;59983;52.010;5.420;2023-05-23T05:08:02;102095.13;;;13.46;97.29
72110;BME280;59983;52.010;5.420;2023-05-23T05:10:28;102098.66;;;13.46;97.11
72110;BME280;59983;52.010;5.420;2023-05-23T05:12:55;102112.97;;;13.43;96.97
72110;BME280;59983;52.010;5.420;2023-05-23T05:15:21;102114.88;;;13.43;96.50
72110;BME280;59983;52.010;5.420;2023-05-23T05:17:48;102120.25;;;13.30;96.59
72110;BME280;59983;52.010;5.420;2023-05-23T05:20:15;102129.09;;;13.27;96.56
72110;BME280;59983;52.010;5.420;2023-05-23T05:22:42;102133.75;;;13.27;96.80
72110;BME280;59983;52.010;5.420;2023-05-23T05:25:10;102141.13;;;13.26;96.77
72110;BME280;59983;52.010;5.420;2023-05-23T05:27:36;102146.31;;;13.19;95.63
72110;BME280;59983;52.010;5.420;2023-05-23T05:30:08;102150.78;;;13.15;95.43
72110;BME280;59983;52.010;5.420;2023-05-23T05:32:35;102141.66;;;13.20;95.47
72110;BME280;59983;52.010;5.420;2023-05-23T05:35:02;102142.44;;;13.20;94.50
72110;BME280;59983;52.010;5.420;2023-05-23T05:37:29;102154.75;;;13.26;94.72
72110;BME280;59983;52.010;5.420;2023-05-23T05:39:55;102150.22;;;13.30;94.20
72110;BME280;59983;52.010;5.420;2023-05-23T05:42:22;102148.13;;;13.36;93.34
72110;BME280;59983;52.010;5.420;2023-05-23T05:44:49;102150.28;;;13.43;92.55
72110;BME280;59983;52.010;5.420;2023-05-23T05:47:16;102152.28;;;13.33;91.75
72110;BME280;59983;52.010;5.420;2023-05-23T05:49:42;102161.41;;;13.38;90.56
72110;BME280;59983;52.010;5.420;2023-05-23T05:52:09;102162.78;;;13.23;88.68
72110;BME280;59983;52.010;5.420;2023-05-23T05:54:35;102170.78;;;13.28;89.12
72110;BME280;59983;52.010;5.420;2023-05-23T05:57:03;102165.13;;;13.33;88.48
72110;BME280;59983;52.010;5.420;2023-05-23T05:59:29;102170.31;;;13.26;86.69
72110;BME280;59983;52.010;5.420;2023-05-23T06:01:58;102172.38;;;13.29;87.23
72110;BME280;59983;52.010;5.420;2023-05-23T06:04:24;102177.25;;;13.44;87.08
72110;BME280;59983;52.010;5.420;2023-05-23T06:06:51;102176.13;;;13.45;85.39
72110;BME280;59983;52.010;5.420;2023-05-23T06:09:17;102181.09;;;13.43;85.23
72110;BME280;59983;52.010;5.420;2023-05-23T06:11:44;102181.28;;;13.38;83.72
72110;BME280;59983;52.010;5.420;2023-05-23T06:14:11;102184.00;;;13.38;84.63
72110;BME280;59983;52.010;5.420;2023-05-23T06:16:38;102201.50;;;13.37;84.22
72110;BME280;59983;52.010;5.420;2023-05-23T06:19:05;102194.16;;;13.29;83.44
72110;BME280;59983;52.010;5.420;2023-05-23T06:21:31;102189.84;;;13.28;83.96
72110;BME280;59983;52.010;5.420;2023-05-23T06:23:58;102196.78;;;13.17;83.23
72110;BME280;59983;52.010;5.420;2023-05-23T06:26:24;102187.97;;;13.20;84.27
72110;BME280;59983;52.010;5.420;2023-05-23T06:28:52;102188.72;;;13.29;83.28
72110;BME280;59983;52.010;5.420;2023-05-23T06:31:18;102186.63;;;13.35;83.68
72110;BME280;59983;52.010;5.420;2023-05-23T06:33:45;102192.31;;;13.42;82.89
72110;BME280;59983;52.010;5.420;2023-05-23T06:36:11;102192.19;;;13.38;82.85
72110;BME280;59983;52.010;5.420;2023-05-23T06:38:38;102199.34;;;13.43;83.43
72110;BME280;59983;52.010;5.420;2023-05-23T06:41:04;102200.38;;;13.59;82.86
72110;BME280;59983;52.010;5.420;2023-05-23T06:43:32;102201.38;;;13.54;82.46
72110;BME280;59983;52.010;5.420;2023-05-23T06:45:59;102198.63;;;13.33;82.84
72110;BME280;59983;52.010;5.420;2023-05-23T06:48:25;102205.34;;;13.36;83.24
72110;BME280;59983;52.010;5.420;2023-05-23T06:50:52;102205.31;;;13.45;82.68
72110;BME280;59983;52.010;5.420;2023-05-23T06:53:18;102202.38;;;13.50;82.90
72110;BME280;59983;52.010;5.420;2023-05-23T06:55:45;102203.84;;;13.47;82.78
72110;BME280;59983;52.010;5.420;2023-05-23T06:58:12;102197.41;;;13.52;83.21
72110;BME280;59983;52.010;5.420;2023-05-23T07:00:39;102201.00;;;13.65;82.83
72110;BME280;59983;52.010;5.420;2023-05-23T07:03:06;102203.84;;;13.47;83.08
72110;BME280;59983;52.010;5.420;2023-05-23T07:05:33;102209.00;;;13.40;84.12
72110;BME280;59983;52.010;5.420;2023-05-23T07:08:05;102212.69;;;13.44;83.81
72110;BME280;59983;52.010;5.420;2023-05-23T07:10:32;102219.09;;;13.40;84.29
72110;BME280;59983;52.010;5.420;2023-05-23T07:13:00;102216.25;;;13.36;85.25
72110;BME280;59983;52.010;5.420;2023-05-23T07:15:27;102218.13;;;13.44;85.29
72110;BME280;59983;52.010;5.420;2023-05-23T07:17:54;102216.84;;;13.42;85.73
72110;BME280;59983;52.010;5.420;2023-05-23T07:20:21;102227.09;;;13.45;86.06
72110;BME280;59983;52.010;5.420;2023-05-23T07:22:47;102217.78;;;13.46;86.46
72110;BME280;59983;52.010;5.420;2023-05-23T07:25:14;102224.78;;;13.35;87.04
72110;BME280;59983;52.010;5.420;2023-05-23T07:27:40;102231.47;;;13.37;88.66
72110;BME280;59983;52.010;5.420;2023-05-23T07:30:07;102238.41;;;13.35;88.15
72110;BME280;59983;52.010;5.420;2023-05-23T07:32:35;102242.13;;;13.21;89.03
72110;BME280;59983;52.010;5.420;2023-05-23T07:35:02;102244.19;;;13.24;89.77
72110;BME280;59983;52.010;5.420;2023-05-23T07:37:29;102249.97;;;13.14;90.54
72110;BME280;59983;52.010;5.420;2023-05-23T07:39:55;102239.53;;;13.25;91.21
72110;BME280;59983;52.010;5.420;2023-05-23T07:42:22;102244.34;;;13.28;89.33
72110;BME280;59983;52.010;5.420;2023-05-23T07:44:48;102243.84;;;13.35;89.54
72110;BME280;59983;52.010;5.420;2023-05-23T07:47:15;102245.22;;;13.41;86.56
72110;BME280;59983;52.010;5.420;2023-05-23T07:49:41;102246.78;;;13.50;86.43
72110;BME280;59983;52.010;5.420;2023-05-23T07:52:08;102241.09;;;13.64;84.31
72110;BME280;59983;52.010;5.420;2023-05-23T07:54:35;102244.69;;;13.77;82.53
72110;BME280;59983;52.010;5.420;2023-05-23T07:57:01;102241.16;;;13.76;79.68
72110;BME280;59983;52.010;5.420;2023-05-23T07:59:28;102247.69;;;13.84;77.89
72110;BME280;59983;52.010;5.420;2023-05-23T08:01:55;102245.91;;;13.88;78.80
72110;BME280;59983;52.010;5.420;2023-05-23T08:04:22;102249.88;;;13.91;77.67
72110;BME280;59983;52.010;5.420;2023-05-23T08:06:48;102257.94;;;13.87;76.21
72110;BME280;59983;52.010;5.420;2023-05-23T08:09:30;102261.84;;;13.77;75.67
72110;BME280;59983;52.010;5.420;2023-05-23T08:11:57;102258.06;;;13.91;75.54
72110;BME280;59983;52.010;5.420;2023-05-23T08:14:23;102261.66;;;14.03;76.28
72110;BME280;59983;52.010;5.420;2023-05-23T08:17:03;102256.03;;;14.21;75.18
72110;BME280;59983;52.010;5.420;2023-05-23T08:19:30;102257.31;;;14.23;73.52
72110;BME280;59983;52.010;5.420;2023-05-23T08:21:57;102258.69;;;14.29;73.50
72110;BME280;59983;52.010;5.420;2023-05-23T08:24:23;102265.50;;;14.23;72.42
72110;BME280;59983;52.010;5.420;2023-05-23T08:26:50;102266.50;;;14.18;73.36
72110;BME280;59983;52.010;5.420;2023-05-23T08:29:16;102278.56;;;14.17;73.79
72110;BME280;59983;52.010;5.420;2023-05-23T08:31:43;102278.50;;;14.05;74.20
72110;BME280;59983;52.010;5.420;2023-05-23T08:34:10;102279.09;;;14.11;74.81
72110;BME280;59983;52.010;5.420;2023-05-23T08:36:37;102279.19;;;14.35;72.81
72110;BME280;59983;52.010;5.420;2023-05-23T08:39:05;102285.06;;;14.46;71.67
72110;BME280;59983;52.010;5.420;2023-05-23T08:41:32;102290.38;;;14.22;71.55
72110;BME280;59983;52.010;5.420;2023-05-23T08:43:59;102294.19;;;14.08;72.77
72110;BME280;59983;52.010;5.420;2023-05-23T08:46:26;102292.94;;;14.06;73.21
72110;BME280;59983;52.010;5.420;2023-05-23T08:48:53;102299.47;;;14.13;72.05
72110;BME280;59983;52.010;5.420;2023-05-23T08:51:21;102288.22;;;14.15;72.54
72110;BME280;59983;52.010;5.420;2023-05-23T08:53:48;102301.78;;;14.24;71.42
72110;BME280;59983;52.010;5.420;2023-05-23T08:56:18;102295.38;;;14.40;72.47
72110;BME280;59983;52.010;5.420;2023-05-23T08:58:45;102294.06;;;14.47;70.92
72110;BME280;59983;52.010;5.420;2023-05-23T09:01:13;102299.56;;;14.38;71.33
72110;BME280;59983;52.010;5.420;2023-05-23T09:03:41;102296.50;;;14.39;71.84
72110;BME280;59983;52.010;5.420;2023-05-23T09:06:08;102292.72;;;14.53;72.26
72110;BME280;59983;52.010;5.420;2023-05-23T09:08:35;102300.66;;;14.79;70.59
72110;BME280;59983;52.010;5.420;2023-05-23T09:11:04;102300.81;;;14.94;70.65
72110;BME280;59983;52.010;5.420;2023-05-23T09:13:32;102311.66;;;15.15;68.79
72110;BME280;59983;52.010;5.420;2023-05-23T09:16:03;102306.97;;;15.16;67.27
72110;BME280;59983;52.010;5.420;2023-05-23T09:18:39;102318.38;;;15.18;68.87
72110;BME280;59983;52.010;5.420;2023-05-23T09:21:10;102314.03;;;15.05;66.91
72110;BME280;59983;52.010;5.420;2023-05-23T09:23:39;102316.19;;;14.99;68.10
72110;BME280;59983;52.010;5.420;2023-05-23T09:26:07;102320.03;;;14.86;67.67
72110;BME280;59983;52.010;5.420;2023-05-23T09:28:36;102326.28;;;14.86;67.09
72110;BME280;59983;52.010;5.420;2023-05-23T09:31:04;102315.72;;;14.85;66.42
72110;BME280;59983;52.010;5.420;2023-05-23T09:33:47;102311.09;;;15.34;67.20
72110;BME280;59983;52.010;5.420;2023-05-23T09:36:15;102303.03;;;15.62;65.78
72110;BME280;59983;52.010;5.420;2023-05-23T09:38:44;102314.06;;;15.78;64.25
72110;BME280;59983;52.010;5.420;2023-05-23T09:41:12;102310.22;;;15.67;63.97
72110;BME280;59983;52.010;5.420;2023-05-23T09:43:39;102313.25;;;15.53;64.00
72110;BME280;59983;52.010;5.420;2023-05-23T09:46:10;102318.19;;;15.47;65.39
72110;BME280;59983;52.010;5.420;2023-05-23T09:48:37;102314.97;;;15.45;66.13
72110;BME280;59983;52.010;5.420;2023-05-23T09:51:08;102320.56;;;15.49;65.61
72110;BME280;59983;52.010;5.420;2023-05-23T09:53:35;102316.22;;;15.36;65.08
72110;BME280;59983;52.010;5.420;2023-05-23T09:56:02;102330.47;;;15.41;65.85
72110;BME280;59983;52.010;5.420;2023-05-23T09:58:29;102323.84;;;15.54;65.57
72110;BME280;59983;52.010;5.420;2023-05-23T10:01:01;102330.56;;;15.45;62.09
72110;BME280;59983;52.010;5.420;2023-05-23T10:03:44;102332.09;;;15.67;61.43
72110;BME280;59983;52.010;5.420;2023-05-23T10:09:09;102320.13;;;15.83;60.39
72110;BME280;59983;52.010;5.420;2023-05-23T10:14:34;102332.63;;;16.09;59.45
72110;BME280;59983;52.010;5.420;2023-05-23T10:17:07;102330.50;;;16.58;59.25
72110;BME280;59983;52.010;5.420;2023-05-23T10:19:43;102330.13;;;16.60;58.18
72110;BME280;59983;52.010;5.420;2023-05-23T10:22:13;102342.88;;;16.52;59.02
72110;BME280;59983;52.010;5.420;2023-05-23T10:24:44;102338.91;;;16.37;59.06
72110;BME280;59983;52.010;5.420;2023-05-23T10:27:11;102349.63;;;16.02;59.58
72110;BME280;59983;52.010;5.420;2023-05-23T10:29:38;102350.88;;;15.93;59.47
72110;BME280;59983;52.010;5.420;2023-05-23T10:32:06;102345.03;;;16.19;59.86
72110;BME280;59983;52.010;5.420;2023-05-23T10:37:35;102340.41;;;16.91;56.94
72110;BME280;59983;52.010;5.420;2023-05-23T10:40:49;102346.22;;;16.74;56.80
72110;BME280;59983;52.010;5.420;2023-05-23T10:43:39;102347.19;;;16.53;58.13
72110;BME280;59983;52.010;5.420;2023-05-23T10:46:08;102343.25;;;16.38;60.13
72110;BME280;59983;52.010;5.420;2023-05-23T10:48:42;102361.59;;;16.78;59.73
72110;BME280;59983;52.010;5.420;2023-05-23T10:51:13;102356.41;;;16.61;59.53
72110;BME280;59983;52.010;5.420;2023-05-23T10:53:45;102353.94;;;16.84;59.35
72110;BME280;59983;52.010;5.420;2023-05-23T10:56:20;102356.00;;;17.03;59.81
72110;BME280;59983;52.010;5.420;2023-05-23T10:58:54;102350.91;;;17.33;56.81
72110;BME280;59983;52.010;5.420;2023-05-23T11:01:21;102350.44;;;17.46;56.72
72110;BME280;59983;52.010;5.420;2023-05-23T11:03:50;102357.06;;;17.30;54.43
72110;BME280;59983;52.010;5.420;2023-05-23T11:06:39;102359.53;;;17.03;55.22
72110;BME280;59983;52.010;5.420;2023-05-23T11:09:14;102359.25;;;16.92;54.21
72110;BME280;59983;52.010;5.420;2023-05-23T11:14:14;102361.75;;;16.69;55.17
72110;BME280;59983;52.010;5.420;2023-05-23T11:16:43;102341.50;;;16.46;57.02
72110;BME280;59983;52.010;5.420;2023-05-23T11:19:29;102355.94;;;16.59;56.87
72110;BME280;59983;52.010;5.420;2023-05-23T11:22:01;102352.75;;;16.57;57.40
72110;BME280;59983;52.010;5.420;2023-05-23T11:24:51;102342.09;;;16.67;57.75
72110;BME280;59983;52.010;5.420;2023-05-23T11:27:29;102349.94;;;16.81;58.31
72110;BME280;59983;52.010;5.420;2023-05-23T11:30:05;102364.84;;;17.12;56.19
72110;BME280;59983;52.010;5.420;2023-05-23T11:32:32;102360.69;;;17.18;54.25
72110;BME280;59983;52.010;5.420;2023-05-23T11:35:00;102361.75;;;16.69;54.55
72110;BME280;59983;52.010;5.420;2023-05-23T11:37:28;102355.13;;;16.30;54.29
72110;BME280;59983;52.010;5.420;2023-05-23T11:39:55;102354.09;;;16.35;55.28
72110;BME280;59983;52.010;5.420;2023-05-23T11:42:22;102352.69;;;16.53;54.65
72110;BME280;59983;52.010;5.420;2023-05-23T11:44:50;102354.25;;;16.26;55.16
72110;BME280;59983;52.010;5.420;2023-05-23T11:47:17;102361.44;;;16.19;56.65
72110;BME280;59983;52.010;5.420;2023-05-23T11:49:45;102357.81;;;16.02;57.40
72110;BME280;59983;52.010;5.420;2023-05-23T11:52:12;102367.16;;;16.26;56.66
72110;BME280;59983;52.010;5.420;2023-05-23T11:54:40;102360.72;;;16.74;54.26
72110;BME280;59983;52.010;5.420;2023-05-23T11:57:10;102355.66;;;17.20;53.82
72110;BME280;59983;52.010;5.420;2023-05-23T11:59:37;102364.06;;;17.27;52.94
72110;BME280;59983;52.010;5.420;2023-05-23T12:02:05;102367.69;;;17.47;54.59
72110;BME280;59983;52.010;5.420;2023-05-23T12:04:34;102366.09;;;17.46;53.28
72110;BME280;59983;52.010;5.420;2023-05-23T12:07:04;102372.66;;;17.25;52.41
72110;BME280;59983;52.010;5.420;2023-05-23T12:09:31;102364.41;;;17.10;52.01
72110;BME280;59983;52.010;5.420;2023-05-23T12:11:58;102368.34;;;16.81;51.57
72110;BME280;59983;52.010;5.420;2023-05-23T12:14:27;102369.03;;;16.78;53.31
72110;BME280;59983;52.010;5.420;2023-05-23T12:16:54;102376.88;;;17.07;53.70
72110;BME280;59983;52.010;5.420;2023-05-23T12:19:21;102380.44;;;17.23;52.25
72110;BME280;59983;52.010;5.420;2023-05-23T12:21:48;102376.25;;;16.98;54.01
72110;BME280;59983;52.010;5.420;2023-05-23T12:24:19;102378.25;;;16.85;53.37
72110;BME280;59983;52.010;5.420;2023-05-23T12:26:51;102387.09;;;16.94;53.48
72110;BME280;59983;52.010;5.420;2023-05-23T12:29:27;102378.84;;;17.38;53.84
72110;BME280;59983;52.010;5.420;2023-05-23T12:31:54;102378.66;;;17.47;51.38
72110;BME280;59983;52.010;5.420;2023-05-23T12:34:21;102384.69;;;17.68;52.53
72110;BME280;59983;52.010;5.420;2023-05-23T12:36:47;102375.81;;;18.26;47.51
72110;BME280;59983;52.010;5.420;2023-05-23T12:39:23;102378.06;;;17.85;48.60
72110;BME280;59983;52.010;5.420;2023-05-23T12:41:52;102378.25;;;17.76;50.47
72110;BME280;59983;52.010;5.420;2023-05-23T12:44:21;102378.22;;;17.61;50.90
72110;BME280;59983;52.010;5.420;2023-05-23T12:46:48;102378.69;;;17.78;49.93
72110;BME280;59983;52.010;5.420;2023-05-23T12:49:15;102381.84;;;17.49;51.05
72110;BME280;59983;52.010;5.420;2023-05-23T12:51:41;102365.31;;;17.61;49.69
72110;BME280;59983;52.010;5.420;2023-05-23T12:54:08;102376.38;;;17.80;48.65
72110;BME280;59983;52.010;5.420;2023-05-23T12:56:35;102370.44;;;17.94;47.35
72110;BME280;59983;52.010;5.420;2023-05-23T12:59:02;102368.13;;;17.96;46.96
72110;BME280;59983;52.010;5.420;2023-05-23T13:01:29;102377.34;;;17.72;47.73
72110;BME280;59983;52.010;5.420;2023-05-23T13:03:56;102379.28;;;17.56;48.71
72110;BME280;59983;52.010;5.420;2023-05-23T13:06:23;102370.00;;;17.61;49.46
72110;BME280;59983;52.010;5.420;2023-05-23T13:08:50;102381.41;;;17.63;48.09
72110;BME280;59983;52.010;5.420;2023-05-23T13:11:16;102374.78;;;17.32;48.48
72110;BME280;59983;52.010;5.420;2023-05-23T13:13:45;102389.28;;;17.17;49.77